createdAt,value
2023-01-18T00:00:56.654Z,51.80
2023-01-18T00:01:57.703Z,52.35
2023-01-18T00:02:57.083Z,53.88
2023-01-18T00:03:56.660Z,55.33
2023-01-18T00:04:56.660Z,47.00
2023-01-18T00:05:56.648Z,47.24
2023-01-18T00:06:56.622Z,48.79
2023-01-18T00:07:56.619Z,47.58
2023-01-18T00:08:56.609Z,47.00
2023-01-18T00:09:56.609Z,46.60
2023-01-18T00:10:56.616Z,46.57
2023-01-18T00:11:56.579Z,51.91
2023-01-18T00:12:57.122Z,49.60
2023-01-18T00:13:56.569Z,52.70
2023-01-18T00:14:56.571Z,53.01
2023-01-18T00:15:56.594Z,53.51
2023-01-18T00:16:56.575Z,53.53
2023-01-18T00:17:56.532Z,59.95
2023-01-18T00:18:56.535Z,47.56
2023-01-18T00:19:56.530Z,50.48
2023-01-18T00:20:56.551Z,48.23
2023-01-18T00:21:56.513Z,48.02
2023-01-18T00:22:56.929Z,57.39
2023-01-18T00:23:56.503Z,46.60
2023-01-18T00:24:56.502Z,46.37
2023-01-18T00:25:56.510Z,47.16
2023-01-18T00:26:56.545Z,60.60
2023-01-18T00:27:56.467Z,47.76
2023-01-18T00:28:56.480Z,53.56
2023-01-18T00:29:56.430Z,50.67
2023-01-18T00:30:56.463Z,47.23
2023-01-18T00:31:56.525Z,46.89
2023-01-18T00:32:56.915Z,47.18
2023-01-18T00:33:56.425Z,46.66
2023-01-18T00:34:56.415Z,46.22
2023-01-18T00:35:56.416Z,45.57
2023-01-18T00:36:56.391Z,60.92
2023-01-18T00:37:56.417Z,54.56
2023-01-18T00:38:56.412Z,47.12
2023-01-18T00:39:56.382Z,57.04
2023-01-18T00:40:56.367Z,46.93
2023-01-18T00:41:56.373Z,51.88
2023-01-18T00:42:56.737Z,46.14
2023-01-18T00:43:56.354Z,46.90
2023-01-18T00:44:56.355Z,52.15
2023-01-18T00:45:56.394Z,46.66
2023-01-18T00:46:56.326Z,50.86
2023-01-18T00:47:56.384Z,45.77
2023-01-18T00:48:56.345Z,46.17
2023-01-18T00:49:56.292Z,52.91
2023-01-18T00:50:56.292Z,46.42
2023-01-18T00:51:58.704Z,47.60
2023-01-18T00:52:57.866Z,47.41
2023-01-18T00:53:56.316Z,51.89
2023-01-18T00:54:56.261Z,47.57
2023-01-18T00:55:56.260Z,47.36
2023-01-18T00:56:56.253Z,52.71
2023-01-18T00:57:56.238Z,48.33
2023-01-18T00:58:56.241Z,56.33
2023-01-18T00:59:56.267Z,54.40
2023-01-18T01:00:56.344Z,52.27
2023-01-18T01:01:56.421Z,48.74
2023-01-18T01:02:56.743Z,56.77
2023-01-18T01:03:56.196Z,47.74
2023-01-18T01:04:56.204Z,51.56
2023-01-18T01:05:56.190Z,49.59
2023-01-18T01:06:56.169Z,53.44
2023-01-18T01:07:56.169Z,46.77
2023-01-18T01:08:56.156Z,58.80
2023-01-18T01:09:56.187Z,52.21
2023-01-18T01:10:56.674Z,56.65
2023-01-18T01:11:56.183Z,52.20
2023-01-18T01:12:56.526Z,57.71
2023-01-18T01:13:56.112Z,49.07
2023-01-18T01:14:56.118Z,51.75
2023-01-18T01:15:56.134Z,46.29
2023-01-18T01:16:56.181Z,57.29
2023-01-18T01:17:56.086Z,56.34
2023-01-18T01:18:56.084Z,53.08
2023-01-18T01:19:56.081Z,46.39
2023-01-18T01:20:56.077Z,50.97
2023-01-18T01:21:56.077Z,47.53
2023-01-18T01:22:56.501Z,51.52
2023-01-18T01:23:56.061Z,51.74
2023-01-18T01:24:56.042Z,51.55
2023-01-18T01:25:56.064Z,50.25
2023-01-18T01:26:56.029Z,54.69
2023-01-18T01:27:56.009Z,46.53
2023-01-18T01:28:56.039Z,48.98
2023-01-18T01:29:56.004Z,49.33
2023-01-18T01:30:56.034Z,54.41
2023-01-18T01:31:56.006Z,46.19
2023-01-18T01:32:56.423Z,52.20
2023-01-18T01:33:55.987Z,46.16
2023-01-18T01:34:55.956Z,46.61
2023-01-18T01:35:55.971Z,55.29
2023-01-18T01:36:55.968Z,46.86
2023-01-18T01:37:55.957Z,59.07
2023-01-18T01:38:55.934Z,47.67
2023-01-18T01:39:55.923Z,46.37
2023-01-18T01:40:55.970Z,51.14
2023-01-18T01:41:55.916Z,53.33
2023-01-18T01:42:56.307Z,53.89
2023-01-18T01:43:55.902Z,58.95
2023-01-18T01:44:55.890Z,49.54
2023-01-18T01:45:55.887Z,45.66
2023-01-18T01:46:56.878Z,50.98
2023-01-18T01:47:55.877Z,46.56
2023-01-18T01:48:55.851Z,45.94
2023-01-18T01:49:55.857Z,47.18
2023-01-18T01:50:55.840Z,46.91
2023-01-18T01:51:55.837Z,51.00
2023-01-18T01:52:56.286Z,52.17
2023-01-18T01:53:55.887Z,46.45
2023-01-18T01:54:55.830Z,58.32
2023-01-18T01:55:56.318Z,47.91
2023-01-18T01:56:55.824Z,58.31
2023-01-18T01:57:55.814Z,51.33
2023-01-18T01:58:56.356Z,51.15
2023-01-18T01:59:55.766Z,52.19
2023-01-18T02:00:55.879Z,45.73
2023-01-18T02:01:55.879Z,52.19
2023-01-18T02:02:56.029Z,51.79
2023-01-18T02:03:55.769Z,46.76
2023-01-18T02:04:55.763Z,59.20
2023-01-18T02:05:55.722Z,57.92
2023-01-18T02:06:56.739Z,51.52
2023-01-18T02:07:55.728Z,48.41
2023-01-18T02:08:55.713Z,47.08
2023-01-18T02:09:55.718Z,48.05
2023-01-18T02:10:55.691Z,52.74
2023-01-18T02:11:55.695Z,47.06
2023-01-18T02:12:56.086Z,47.27
2023-01-18T02:13:55.676Z,46.52
2023-01-18T02:14:55.691Z,51.63
2023-01-18T02:15:55.659Z,52.54
2023-01-18T02:16:55.683Z,46.51
2023-01-18T02:17:55.636Z,46.78
2023-01-18T02:18:55.631Z,50.60
2023-01-18T02:19:55.637Z,45.74
2023-01-18T02:20:55.642Z,46.79
2023-01-18T02:21:55.627Z,52.42
2023-01-18T02:22:55.916Z,50.94
2023-01-18T02:23:55.612Z,47.26
2023-01-18T02:24:57.998Z,54.25
2023-01-18T02:25:55.584Z,46.38
2023-01-18T02:26:55.605Z,46.03
2023-01-18T02:27:55.569Z,50.62
2023-01-18T02:28:56.550Z,45.84
2023-01-18T02:29:55.603Z,45.69
2023-01-18T02:30:55.545Z,45.72
2023-01-18T02:31:55.552Z,46.12
2023-01-18T02:33:27.447Z,48.07
2023-01-18T02:33:55.551Z,46.53
2023-01-18T02:34:55.587Z,50.03
2023-01-18T02:35:55.611Z,48.79
2023-01-18T02:36:55.510Z,63.81
2023-01-18T02:37:55.498Z,48.33
2023-01-18T02:38:55.500Z,52.07
2023-01-18T02:39:55.532Z,50.48
2023-01-18T02:40:55.499Z,47.12
2023-01-18T02:41:55.513Z,49.47
2023-01-18T02:42:55.798Z,48.38
2023-01-18T02:43:55.477Z,47.84
2023-01-18T02:44:55.487Z,47.56
2023-01-18T02:45:55.503Z,46.57
2023-01-18T02:46:55.470Z,46.02
2023-01-18T02:47:55.452Z,46.16
2023-01-18T02:48:55.422Z,50.61
2023-01-18T02:49:55.458Z,46.47
2023-01-18T02:50:55.484Z,46.14
2023-01-18T02:51:55.439Z,49.34
2023-01-18T02:52:55.657Z,49.64
2023-01-18T02:53:55.407Z,49.79
2023-01-18T02:54:55.400Z,47.41
2023-01-18T02:55:55.399Z,46.47
2023-01-18T02:56:55.361Z,46.69
2023-01-18T02:57:55.384Z,51.82
2023-01-18T02:58:55.367Z,51.61
2023-01-18T02:59:55.388Z,46.54
2023-01-18T03:00:55.354Z,47.51
2023-01-18T03:01:55.375Z,55.69
2023-01-18T03:02:55.728Z,47.01
2023-01-18T03:03:55.336Z,53.50
2023-01-18T03:04:55.390Z,46.90
2023-01-18T03:05:55.303Z,51.44
2023-01-18T03:06:55.292Z,51.27
2023-01-18T03:07:55.275Z,51.68
2023-01-18T03:08:56.263Z,50.11
2023-01-18T03:09:55.301Z,46.49
2023-01-18T03:10:56.274Z,54.81
2023-01-18T03:11:55.263Z,49.34
2023-01-18T03:12:55.450Z,46.08
2023-01-18T03:13:55.272Z,51.29
2023-01-18T03:14:55.279Z,49.14
2023-01-18T03:15:55.307Z,49.72
2023-01-18T03:16:55.239Z,52.65
2023-01-18T03:17:55.237Z,47.12
2023-01-18T03:18:55.213Z,47.65
2023-01-18T03:19:55.237Z,46.95
2023-01-18T03:20:55.208Z,46.89
2023-01-18T03:21:55.208Z,48.37
2023-01-18T03:22:55.649Z,49.49
2023-01-18T03:23:55.169Z,55.88
2023-01-18T03:24:55.220Z,48.19
2023-01-18T03:25:55.181Z,51.03
2023-01-18T03:26:55.245Z,52.10
2023-01-18T03:27:55.176Z,65.77
2023-01-18T03:28:55.179Z,52.92
2023-01-18T03:29:55.155Z,47.85
2023-01-18T03:30:55.211Z,52.59
2023-01-18T03:31:55.113Z,60.07
2023-01-18T03:32:55.673Z,51.91
2023-01-18T03:33:55.128Z,48.40
2023-01-18T03:34:55.101Z,46.08
2023-01-18T03:35:55.098Z,52.70
2023-01-18T03:36:55.106Z,54.78
2023-01-18T03:37:55.074Z,48.31
2023-01-18T03:38:55.102Z,46.75
2023-01-18T03:39:55.061Z,47.06
2023-01-18T03:40:55.084Z,46.72
2023-01-18T03:41:55.099Z,56.82
2023-01-18T03:42:55.282Z,47.18
2023-01-18T03:43:55.062Z,50.95
2023-01-18T03:44:55.043Z,54.42
2023-01-18T03:45:55.169Z,58.37
2023-01-18T03:46:55.050Z,51.94
2023-01-18T04:03:59.809Z,50.66
2023-01-18T04:04:59.846Z,45.59
2023-01-18T04:06:00.927Z,54.75
2023-01-18T04:07:00.930Z,50.73
2023-01-18T04:08:00.949Z,60.20
2023-01-18T04:09:01.548Z,51.61
2023-01-18T04:10:01.027Z,56.32
2023-01-18T04:11:00.932Z,59.94
2023-01-18T04:12:00.887Z,56.88
2023-01-18T04:13:01.514Z,55.45
2023-01-18T04:14:00.889Z,62.89
2023-01-18T04:15:00.878Z,60.95
2023-01-18T04:16:00.906Z,63.51
2023-01-18T04:17:00.877Z,60.06
2023-01-18T04:18:00.863Z,54.92
2023-01-18T04:19:00.830Z,55.35
2023-01-18T04:20:00.844Z,56.48
2023-01-18T04:21:00.958Z,56.95
2023-01-18T04:22:00.818Z,61.15
2023-01-18T04:23:01.234Z,62.53
2023-01-18T04:24:00.799Z,61.57
2023-01-18T04:25:00.807Z,63.54
2023-01-18T04:26:00.816Z,60.36
2023-01-18T04:27:00.796Z,60.15
2023-01-18T04:28:00.811Z,60.29
2023-01-18T04:29:00.765Z,61.68
2023-01-18T04:30:00.806Z,59.95
2023-01-18T04:31:00.803Z,56.39
2023-01-18T04:32:00.761Z,62.49
2023-01-18T04:33:01.290Z,53.98
2023-01-18T04:34:00.751Z,67.91
2023-01-18T04:35:00.716Z,68.37
2023-01-18T04:36:00.758Z,62.93
2023-01-18T04:37:00.794Z,68.11
2023-01-18T04:38:00.715Z,62.67
2023-01-18T04:39:00.701Z,68.51
2023-01-18T04:40:00.688Z,52.57
2023-01-18T04:41:00.694Z,61.93
2023-01-18T04:42:00.656Z,58.98
2023-01-18T04:43:01.115Z,59.19
2023-01-18T04:44:00.658Z,66.06
2023-01-18T04:45:00.636Z,58.21
2023-01-18T04:46:00.626Z,62.83
2023-01-18T04:47:00.635Z,66.68
2023-01-18T04:48:00.677Z,66.99
2023-01-18T04:49:00.607Z,62.86
2023-01-18T04:50:00.603Z,67.80
2023-01-18T04:51:00.617Z,60.96
2023-01-18T04:52:01.557Z,59.72
2023-01-18T04:53:01.111Z,61.80
2023-01-18T04:54:00.570Z,64.51
2023-01-18T04:55:00.575Z,60.79
2023-01-18T04:56:00.569Z,55.36
2023-01-18T04:57:00.595Z,65.89
2023-01-18T04:58:00.566Z,57.03
2023-01-18T04:59:00.555Z,65.49
2023-01-18T05:00:02.419Z,63.41
2023-01-18T05:01:00.616Z,59.74
2023-01-18T05:02:00.529Z,61.66
2023-01-18T05:03:00.855Z,63.05
2023-01-18T05:04:00.525Z,57.24
2023-01-18T05:05:00.496Z,64.03
2023-01-18T05:06:00.529Z,58.54
2023-01-18T05:07:00.493Z,68.44
2023-01-18T05:08:00.518Z,65.81
2023-01-18T05:09:00.463Z,60.64
2023-01-18T05:10:00.492Z,64.08
2023-01-18T05:11:01.050Z,66.29
2023-01-18T05:12:00.495Z,64.50
2023-01-18T05:13:00.980Z,63.98
2023-01-18T05:14:00.475Z,61.15
2023-01-18T05:15:00.479Z,58.46
2023-01-18T05:16:00.523Z,66.01
2023-01-18T05:17:00.408Z,57.48
2023-01-18T05:18:00.437Z,67.32
2023-01-18T05:19:00.383Z,66.80
2023-01-18T05:20:00.384Z,61.43
2023-01-18T05:21:00.368Z,67.88
2023-01-18T05:22:00.402Z,65.92
2023-01-18T05:23:01.249Z,66.69
2023-01-18T05:24:00.359Z,68.90
2023-01-18T05:25:00.380Z,70.56
2023-01-18T05:26:00.362Z,71.60
2023-01-18T05:27:00.348Z,64.39
2023-01-18T05:28:00.321Z,67.66
2023-01-18T05:29:00.308Z,68.64
2023-01-18T05:30:00.348Z,66.35
2023-01-18T05:31:00.328Z,66.38
2023-01-18T05:32:00.306Z,66.10
2023-01-18T05:33:01.644Z,65.24
2023-01-18T05:34:00.297Z,61.99
2023-01-18T05:35:00.291Z,69.78
2023-01-18T05:36:00.284Z,63.45
2023-01-18T05:37:00.265Z,65.44
2023-01-18T05:38:00.265Z,68.56
2023-01-18T05:39:00.253Z,71.93
2023-01-18T05:40:00.241Z,70.10
2023-01-18T05:41:00.256Z,64.26
2023-01-18T05:42:00.415Z,69.63
2023-01-18T05:43:01.400Z,69.82
2023-01-18T05:44:01.213Z,71.07
2023-01-18T05:45:00.226Z,67.66
2023-01-18T05:46:00.235Z,65.43
2023-01-18T05:47:00.214Z,70.49
2023-01-18T05:48:00.185Z,70.61
2023-01-18T05:49:00.164Z,70.66
2023-01-18T05:50:00.149Z,67.97
2023-01-18T05:51:00.161Z,68.78
2023-01-18T05:52:00.160Z,65.22
2023-01-18T05:53:00.523Z,69.65
2023-01-18T05:54:00.150Z,65.48
2023-01-18T05:55:00.152Z,69.19
2023-01-18T05:56:00.182Z,67.35
2023-01-18T05:57:00.117Z,69.41
2023-01-18T05:58:01.040Z,69.62
2023-01-18T05:59:00.093Z,69.45
2023-01-18T06:00:01.083Z,65.93
2023-01-18T06:01:00.132Z,71.56
2023-01-18T06:02:00.154Z,61.33
2023-01-18T06:03:00.602Z,69.28
2023-01-18T06:04:00.121Z,64.48
2023-01-18T06:05:00.047Z,70.57
2023-01-18T06:06:00.069Z,65.33
2023-01-18T06:07:00.050Z,64.13
2023-01-18T06:08:00.024Z,68.41
2023-01-18T06:09:00.094Z,64.89
2023-01-18T06:10:00.021Z,65.95
2023-01-18T06:11:00.020Z,71.08
2023-01-18T06:12:00.012Z,73.90
2023-01-18T06:13:00.468Z,68.04
2023-01-18T06:14:00.049Z,64.68
2023-01-18T06:14:59.973Z,70.36
2023-01-18T06:16:00.003Z,70.86
2023-01-18T06:17:01.130Z,68.24
2023-01-18T06:18:00.922Z,67.51
2023-01-18T06:18:59.956Z,72.16
2023-01-18T06:19:59.958Z,70.02
2023-01-18T06:21:01.541Z,68.69
2023-01-18T06:22:00.947Z,72.11
2023-01-18T06:23:00.355Z,72.81
2023-01-18T06:23:59.948Z,71.34
2023-01-18T06:24:59.945Z,70.70
2023-01-18T06:25:59.903Z,69.34
2023-01-18T06:26:59.931Z,69.45
2023-01-18T06:27:59.885Z,67.35
2023-01-18T06:28:59.936Z,73.03
2023-01-18T06:29:59.873Z,71.80
2023-01-18T06:30:59.900Z,72.77
2023-01-18T06:31:59.988Z,71.79
2023-01-18T06:33:00.329Z,71.19
2023-01-18T06:33:59.868Z,72.58
2023-01-18T06:34:59.858Z,66.84
2023-01-18T06:35:59.836Z,65.14
2023-01-18T06:36:59.812Z,70.76
2023-01-18T06:37:59.836Z,71.87
2023-01-18T06:38:59.802Z,66.76
2023-01-18T06:40:01.921Z,72.77
2023-01-18T06:40:59.811Z,67.08
2023-01-18T06:41:59.803Z,71.01
2023-01-18T06:43:00.235Z,72.99
2023-01-18T06:43:59.835Z,71.20
2023-01-18T06:44:59.786Z,69.75
2023-01-18T06:45:59.809Z,68.33
2023-01-18T06:46:59.778Z,71.17
2023-01-18T06:47:59.760Z,70.49
2023-01-18T06:48:59.843Z,69.89
2023-01-18T06:49:59.753Z,69.95
2023-01-18T06:51:00.541Z,72.15
2023-01-18T06:51:59.727Z,67.70
2023-01-18T06:53:00.120Z,71.16
2023-01-18T06:53:59.715Z,71.44
2023-01-18T06:54:59.755Z,68.23
2023-01-18T06:55:59.685Z,70.92
2023-01-18T06:56:59.672Z,72.83
2023-01-18T06:57:59.652Z,69.25
2023-01-18T06:58:59.722Z,72.08
2023-01-18T06:59:59.672Z,65.35
2023-01-18T07:00:59.768Z,68.59
2023-01-18T07:01:59.852Z,71.80
2023-01-18T07:03:00.064Z,68.02
2023-01-18T07:03:59.662Z,69.81
2023-01-18T07:04:59.708Z,66.81
2023-01-18T07:05:59.602Z,66.87
2023-01-18T07:06:59.600Z,70.37
2023-01-18T07:07:59.606Z,72.03
2023-01-18T07:08:59.590Z,63.19
2023-01-18T07:09:59.573Z,66.81
2023-01-18T07:10:59.581Z,68.75
2023-01-18T07:12:00.593Z,66.29
2023-01-18T07:13:00.062Z,68.69
2023-01-18T07:13:59.568Z,70.85
2023-01-18T07:15:01.561Z,63.08
2023-01-18T07:16:01.203Z,69.64
2023-01-18T07:17:00.594Z,63.89
2023-01-18T07:17:59.535Z,68.03
2023-01-18T07:18:59.513Z,61.56
2023-01-18T07:20:00.493Z,63.48
2023-01-18T07:20:59.553Z,71.96
2023-01-18T07:21:59.519Z,66.01
2023-01-18T07:22:59.882Z,67.35
2023-01-18T07:23:59.465Z,65.52
2023-01-18T07:25:00.457Z,72.79
2023-01-18T07:25:59.482Z,64.16
2023-01-18T07:26:59.503Z,61.75
2023-01-18T07:27:59.460Z,66.08
2023-01-18T07:28:59.437Z,69.71
2023-01-18T07:29:59.448Z,62.62
2023-01-18T07:30:59.425Z,64.10
2023-01-18T07:31:59.502Z,61.06
2023-01-18T07:32:59.859Z,67.25
2023-01-18T07:33:59.436Z,69.08
2023-01-18T07:34:59.595Z,69.30
2023-01-18T07:36:00.416Z,66.43
2023-01-18T07:36:59.449Z,60.52
2023-01-18T07:37:59.402Z,63.82
2023-01-18T07:38:59.376Z,67.22
2023-01-18T07:39:59.389Z,66.73
2023-01-18T07:40:59.362Z,64.43
2023-01-18T07:41:59.366Z,67.93
2023-01-18T07:42:59.662Z,68.10
2023-01-18T07:43:59.894Z,70.51
2023-01-18T07:44:59.367Z,67.62
2023-01-18T07:45:59.377Z,73.96
2023-01-18T07:46:59.324Z,65.08
2023-01-18T07:47:59.314Z,69.93
2023-01-18T07:48:59.291Z,66.66
2023-01-18T07:49:59.294Z,70.95
2023-01-18T07:50:59.328Z,68.96
2023-01-18T07:51:59.284Z,60.19
2023-01-18T07:52:59.657Z,68.74
2023-01-18T07:53:59.275Z,73.21
2023-01-18T07:54:59.249Z,60.08
2023-01-18T07:55:59.241Z,62.99
2023-01-18T07:56:59.233Z,69.78
2023-01-18T07:57:59.246Z,71.42
2023-01-18T07:58:59.232Z,67.79
2023-01-18T07:59:59.221Z,58.86
2023-01-18T08:00:59.247Z,63.80
2023-01-18T08:01:59.259Z,69.71
2023-01-18T08:02:59.442Z,66.78
2023-01-18T08:04:00.199Z,67.98
2023-01-18T08:04:59.187Z,67.38
2023-01-18T08:05:59.180Z,69.21
2023-01-18T08:06:59.161Z,69.97
2023-01-18T08:07:59.163Z,62.90
2023-01-18T08:08:59.182Z,70.52
2023-01-18T08:09:59.158Z,64.19
2023-01-18T08:10:59.147Z,71.78
2023-01-18T08:11:59.122Z,67.87
2023-01-18T08:12:59.468Z,68.73
2023-01-18T08:13:59.116Z,71.02
2023-01-18T08:14:59.101Z,69.60
2023-01-18T08:15:59.165Z,71.98
2023-01-18T08:16:59.081Z,70.57
2023-01-18T08:17:59.092Z,60.99
2023-01-18T08:18:59.074Z,73.02
2023-01-18T08:19:59.086Z,59.42
2023-01-18T08:20:59.126Z,70.12
2023-01-18T08:21:59.039Z,67.94
2023-01-18T08:22:59.461Z,68.81
2023-01-18T08:23:59.071Z,67.28
2023-01-18T08:24:59.035Z,63.19
2023-01-18T08:25:59.018Z,69.55
2023-01-18T08:26:59.054Z,64.20
2023-01-18T08:27:59.029Z,72.10
2023-01-18T08:28:59.006Z,61.70
2023-01-18T08:29:59.002Z,67.47
2023-01-18T08:30:59.017Z,69.16
2023-01-18T08:31:59.014Z,63.75
2023-01-18T08:33:30.911Z,63.07
2023-01-18T08:33:58.986Z,63.93
2023-01-18T08:34:58.997Z,69.49
2023-01-18T08:35:58.969Z,64.26
2023-01-18T08:36:59.028Z,66.54
2023-01-18T08:37:58.948Z,65.36
2023-01-18T08:38:59.004Z,64.92
2023-01-18T08:39:59.001Z,67.59
2023-01-18T08:40:58.927Z,70.03
2023-01-18T08:41:58.905Z,66.49
2023-01-18T08:42:59.370Z,66.31
2023-01-18T08:43:58.891Z,66.85
2023-01-18T08:44:58.914Z,68.40
2023-01-18T08:45:58.897Z,67.46
2023-01-18T08:46:58.919Z,70.38
2023-01-18T08:47:58.870Z,64.24
2023-01-18T08:48:59.892Z,69.44
2023-01-18T08:49:58.924Z,67.83
2023-01-18T08:50:58.866Z,64.25
2023-01-18T08:51:58.855Z,65.46
2023-01-18T08:52:59.339Z,66.24
2023-01-18T08:53:58.838Z,63.10
2023-01-18T08:54:58.809Z,69.19
2023-01-18T08:55:59.688Z,62.86
2023-01-18T08:56:58.812Z,64.58
2023-01-18T08:57:58.838Z,67.12
2023-01-18T08:58:58.966Z,67.14
2023-01-18T08:59:58.784Z,59.86
2023-01-18T09:00:58.804Z,67.43
2023-01-18T09:01:58.888Z,65.97
2023-01-18T09:02:59.269Z,68.45
2023-01-18T09:03:58.787Z,63.66
2023-01-18T09:04:58.733Z,69.60
2023-01-18T09:05:58.719Z,68.44
2023-01-18T09:06:58.736Z,66.23
2023-01-18T09:07:58.737Z,65.01
2023-01-18T09:08:58.748Z,68.25
2023-01-18T09:09:58.699Z,65.50
2023-01-18T09:10:58.688Z,57.65
2023-01-18T09:11:58.699Z,65.43
2023-01-18T09:12:58.956Z,67.15
2023-01-18T09:14:01.300Z,69.51
2023-01-18T09:14:59.673Z,66.05
2023-01-18T09:15:58.672Z,66.06
2023-01-18T09:16:58.681Z,65.30
2023-01-18T09:17:58.645Z,68.90
2023-01-18T09:18:58.753Z,67.61
2023-01-18T09:19:58.671Z,69.34
2023-01-18T09:20:58.625Z,67.32
2023-01-18T09:21:58.657Z,68.60
2023-01-18T09:22:58.927Z,71.52
2023-01-18T09:23:58.629Z,65.08
2023-01-18T09:24:58.612Z,64.20
2023-01-18T09:25:58.619Z,66.70
2023-01-18T09:26:58.581Z,60.32
2023-01-18T09:27:59.589Z,68.18
2023-01-18T09:28:58.565Z,64.36
2023-01-18T09:29:58.573Z,63.24
2023-01-18T09:30:59.155Z,67.84
2023-01-18T09:31:58.529Z,67.99
2023-01-18T09:32:59.110Z,67.80
2023-01-18T09:34:17.405Z,60.61
2023-01-18T09:35:00.517Z,62.65
2023-01-18T09:35:58.546Z,64.71
2023-01-18T09:36:58.515Z,69.61
2023-01-18T09:37:58.494Z,63.68
2023-01-18T09:38:58.474Z,62.55
2023-01-18T09:39:58.500Z,71.76
2023-01-18T09:40:58.477Z,63.03
2023-01-18T09:41:58.487Z,68.13
2023-01-18T09:42:58.796Z,67.82
2023-01-18T09:43:58.472Z,63.12
2023-01-18T09:44:58.478Z,69.78
2023-01-18T09:45:58.467Z,68.56
2023-01-18T09:46:58.495Z,66.40
2023-01-18T09:47:58.435Z,65.32
2023-01-18T09:48:58.429Z,65.61
2023-01-18T09:49:58.413Z,67.75
2023-01-18T09:50:58.406Z,65.06
2023-01-18T09:51:58.414Z,69.47
2023-01-18T09:52:58.739Z,67.98
2023-01-18T09:53:58.411Z,61.03
2023-01-18T09:54:58.364Z,69.50
2023-01-18T09:55:59.396Z,61.91
2023-01-18T09:56:58.394Z,62.98
2023-01-18T09:57:58.373Z,61.36
2023-01-18T09:58:58.340Z,68.47
2023-01-18T09:59:58.327Z,66.71
2023-01-18T10:00:58.435Z,67.12
2023-01-18T10:01:58.496Z,68.61
2023-01-18T10:02:58.625Z,61.07
2023-01-18T10:03:58.341Z,70.25
2023-01-18T10:04:58.286Z,62.65
2023-01-18T10:05:58.294Z,67.88
2023-01-18T10:06:58.274Z,65.85
2023-01-18T10:07:58.296Z,68.05
2023-01-18T10:08:58.270Z,66.37
2023-01-18T10:09:58.274Z,66.36
2023-01-18T10:10:58.291Z,64.84
2023-01-18T10:11:58.304Z,67.60
2023-01-18T10:12:58.464Z,66.59
2023-01-18T10:13:58.260Z,67.87
2023-01-18T10:14:58.198Z,68.02
2023-01-18T10:15:58.256Z,65.28
2023-01-18T10:16:58.210Z,71.21
2023-01-18T10:17:58.220Z,56.93
2023-01-18T10:18:58.208Z,67.98
2023-01-18T10:19:58.176Z,66.21
2023-01-18T10:20:58.171Z,60.87
2023-01-18T10:21:58.173Z,65.95
2023-01-18T10:22:58.557Z,69.07
2023-01-18T10:23:58.167Z,68.14
2023-01-18T10:24:58.159Z,63.30
2023-01-18T10:25:58.155Z,69.37
2023-01-18T10:26:58.128Z,65.82
2023-01-18T10:27:58.114Z,65.75
2023-01-18T10:28:58.148Z,67.72
2023-01-18T10:29:58.112Z,63.70
2023-01-18T10:30:59.006Z,67.63
2023-01-18T10:31:58.075Z,68.43
2023-01-18T10:32:58.534Z,68.69
2023-01-18T10:33:58.076Z,68.21
2023-01-18T10:34:58.076Z,68.31
2023-01-18T10:35:58.114Z,63.62
2023-01-18T10:36:58.068Z,61.73
2023-01-18T10:37:59.218Z,70.65
2023-01-18T10:38:58.024Z,61.00
2023-01-18T10:39:58.077Z,64.94
2023-01-18T10:40:58.031Z,61.98
2023-01-18T10:41:58.044Z,68.44
2023-01-18T10:42:58.384Z,67.76
2023-01-18T10:43:57.990Z,63.08
2023-01-18T10:44:57.977Z,65.43
2023-01-18T10:45:58.752Z,61.17
2023-01-18T10:46:58.026Z,66.49
2023-01-18T10:47:57.980Z,61.67
2023-01-18T10:48:57.971Z,67.17
2023-01-18T10:49:57.976Z,70.87
2023-01-18T10:50:57.966Z,62.08
2023-01-18T10:51:58.048Z,67.90
2023-01-18T10:52:58.283Z,67.04
2023-01-18T10:53:57.915Z,65.58
2023-01-18T10:54:57.914Z,64.58
2023-01-18T10:55:58.079Z,65.27
2023-01-18T10:56:57.917Z,66.65
2023-01-18T10:57:58.318Z,65.89
2023-01-18T10:58:58.612Z,61.09
2023-01-18T10:59:58.621Z,67.50
2023-01-18T11:00:57.909Z,63.46
2023-01-18T11:01:58.028Z,66.92
2023-01-18T11:02:58.162Z,65.03
2023-01-18T11:03:57.869Z,68.06
2023-01-18T11:04:57.831Z,66.84
2023-01-18T11:05:58.474Z,66.60
2023-01-18T11:06:57.830Z,68.31
2023-01-18T11:07:57.820Z,62.17
2023-01-18T11:08:58.444Z,70.06
2023-01-18T11:09:57.790Z,68.99
2023-01-18T11:10:57.809Z,65.72
2023-01-18T11:11:58.556Z,67.62
2023-01-18T11:12:58.138Z,65.94
2023-01-18T11:13:57.802Z,68.50
2023-01-18T11:14:57.778Z,65.32
2023-01-18T11:15:57.772Z,68.90
2023-01-18T11:16:57.740Z,69.29
2023-01-18T11:17:57.792Z,70.99
2023-01-18T11:18:57.757Z,65.62
2023-01-18T11:19:57.778Z,67.70
2023-01-18T11:20:57.734Z,68.33
2023-01-18T11:21:57.739Z,60.28
2023-01-18T11:22:57.903Z,69.61
2023-01-18T11:23:57.691Z,71.72
2023-01-18T11:24:57.730Z,68.01
2023-01-18T11:26:03.628Z,54.32
2023-01-18T11:26:58.681Z,64.59
2023-01-18T11:27:58.891Z,69.05
2023-01-18T11:28:57.654Z,64.16
2023-01-18T11:29:57.684Z,69.84
2023-01-18T11:30:57.664Z,66.31
2023-01-18T11:31:58.634Z,68.90
2023-01-18T11:32:57.923Z,66.11
2023-01-18T11:33:57.643Z,70.26
2023-01-18T11:34:57.620Z,65.28
2023-01-18T11:35:57.662Z,65.83
2023-01-18T11:36:57.622Z,68.43
2023-01-18T11:37:58.020Z,66.59
2023-01-18T11:38:57.581Z,65.98
2023-01-18T11:39:57.597Z,60.73
2023-01-18T11:40:57.599Z,69.85
2023-01-18T11:41:57.567Z,67.48
2023-01-18T11:42:57.647Z,69.50
2023-01-18T11:43:57.576Z,69.15
2023-01-18T11:44:57.538Z,63.43
2023-01-18T11:45:57.636Z,63.84
2023-01-18T11:46:57.538Z,65.11
2023-01-18T11:47:58.029Z,67.30
2023-01-18T11:48:57.514Z,64.79
2023-01-18T11:49:58.123Z,64.68
2023-01-18T11:50:57.502Z,65.01
2023-01-18T11:51:57.525Z,61.89
2023-01-18T11:52:57.690Z,67.31
2023-01-18T11:53:57.517Z,68.56
2023-01-18T11:54:57.486Z,68.56
2023-01-18T11:55:57.472Z,64.12
2023-01-18T11:56:57.464Z,67.70
2023-01-18T11:57:57.501Z,67.28
2023-01-18T11:58:57.482Z,70.69
2023-01-18T11:59:57.412Z,66.80
2023-01-18T12:00:57.431Z,65.46
2023-01-18T12:01:57.454Z,68.50
2023-01-18T12:02:57.806Z,67.72
2023-01-18T12:03:58.127Z,67.44
2023-01-18T12:04:57.383Z,69.45
2023-01-18T12:05:57.372Z,68.41
2023-01-18T12:06:57.382Z,61.59
2023-01-18T12:07:57.689Z,69.37
2023-01-18T12:08:57.432Z,64.09
2023-01-18T12:09:57.362Z,65.37
2023-01-18T12:10:57.332Z,67.32
2023-01-18T12:12:06.504Z,64.96
2023-01-18T12:12:59.324Z,69.47
2023-01-18T12:14:04.189Z,67.44
2023-01-18T12:14:57.338Z,68.79
2023-01-18T12:15:57.310Z,65.35
2023-01-18T12:16:57.333Z,67.24
2023-01-18T12:18:11.995Z,65.72
2023-01-18T12:18:59.275Z,65.90
2023-01-18T12:19:57.338Z,65.37
2023-01-18T12:20:57.295Z,69.27
2023-01-18T12:21:57.269Z,60.45
2023-01-18T12:22:57.332Z,70.58
2023-01-18T12:23:57.242Z,63.78
2023-01-18T12:24:57.226Z,64.66
2023-01-18T12:26:11.017Z,68.30
2023-01-18T12:27:00.024Z,66.12
2023-01-18T12:27:57.512Z,69.36
2023-01-18T12:28:57.221Z,63.06
2023-01-18T12:29:57.178Z,63.05
2023-01-18T12:30:57.227Z,68.98
2023-01-18T12:31:57.221Z,64.81
2023-01-18T12:32:57.566Z,67.43
2023-01-18T12:33:57.161Z,66.91
2023-01-18T12:34:57.183Z,69.24
2023-01-18T12:35:57.185Z,65.16
2023-01-18T12:36:57.357Z,67.35
2023-01-18T12:37:57.574Z,64.65
2023-01-18T12:38:57.156Z,63.38
2023-01-18T12:39:57.132Z,67.80
2023-01-18T12:40:57.132Z,66.46
2023-01-18T12:41:57.161Z,64.60
2023-01-18T12:42:57.156Z,62.44
2023-01-18T12:43:57.965Z,70.14
2023-01-18T12:44:58.237Z,67.65
2023-01-18T12:45:57.149Z,69.99
2023-01-18T12:46:57.624Z,67.51
2023-01-18T12:47:57.622Z,62.56
2023-01-18T12:48:57.117Z,72.16
2023-01-18T12:49:57.652Z,69.37
2023-01-18T12:50:57.625Z,64.40
2023-01-18T12:52:12.787Z,66.34
2023-01-18T12:52:59.667Z,64.26
2023-01-18T12:53:57.042Z,68.01
2023-01-18T12:54:57.046Z,63.99
2023-01-18T12:55:58.148Z,65.90
2023-01-18T12:56:57.051Z,64.97
2023-01-18T12:57:57.029Z,68.40
2023-01-18T12:58:57.687Z,68.02
2023-01-18T12:59:56.986Z,62.28
2023-01-18T13:00:58.199Z,67.13
2023-01-18T13:01:57.009Z,69.25
2023-01-18T13:02:57.752Z,65.93
2023-01-18T13:03:57.637Z,66.38
2023-01-18T13:04:56.947Z,69.47
2023-01-18T13:05:56.969Z,69.96
2023-01-18T13:06:56.954Z,63.88
2023-01-18T13:07:57.860Z,68.52
2023-01-18T13:08:56.930Z,66.67